sensor_id;sensor_type;location;lat;lon;timestamp;P1;durP1;ratioP1;P2;durP2;ratioP2
70667;SDS011;58242;51.250;-1.118;2024-03-29T00:00:53;3.85;;;3.60;;
70667;SDS011;58242;51.250;-1.118;2024-03-29T00:03:20;3.70;;;3.40;;
70667;SDS011;58242;51.250;-1.118;2024-03-29T00:05:45;3.80;;;3.50;;
70667;SDS011;58242;51.250;-1.118;2024-03-29T00:08:11;4.00;;;3.65;;
70667;SDS011;58242;51.250;-1.118;2024-03-29T00:10:36;3.90;;;3.60;;
70667;SDS011;58242;51.250;-1.118;2024-03-29T00:13:01;3.97;;;3.67;;
70667;SDS011;58242;51.250;-1.118;2024-03-29T00:15:27;5.53;;;3.80;;
70667;SDS011;58242;51.250;-1.118;2024-03-29T00:17:52;3.95;;;3.65;;
70667;SDS011;58242;51.250;-1.118;2024-03-29T00:20:17;3.25;;;3.15;;
70667;SDS011;58242;51.250;-1.118;2024-03-29T00:22:43;3.65;;;3.35;;
70667;SDS011;58242;51.250;-1.118;2024-03-29T00:25:08;3.72;;;3.42;;
70667;SDS011;58242;51.250;-1.118;2024-03-29T00:27:34;3.78;;;3.47;;
70667;SDS011;58242;51.250;-1.118;2024-03-29T00:29:59;4.28;;;3.88;;
70667;SDS011;58242;51.250;-1.118;2024-03-29T00:32:25;3.90;;;3.70;;
70667;SDS011;58242;51.250;-1.118;2024-03-29T00:34:51;5.68;;;3.50;;
70667;SDS011;58242;51.250;-1.118;2024-03-29T00:37:17;4.20;;;3.90;;
70667;SDS011;58242;51.250;-1.118;2024-03-29T00:39:43;4.28;;;3.97;;
70667;SDS011;58242;51.250;-1.118;2024-03-29T00:42:08;4.47;;;4.18;;
70667;SDS011;58242;51.250;-1.118;2024-03-29T00:44:35;3.78;;;3.47;;
70667;SDS011;58242;51.250;-1.118;2024-03-29T00:47:02;3.70;;;3.50;;
70667;SDS011;58242;51.250;-1.118;2024-03-29T00:49:27;4.03;;;3.60;;
70667;SDS011;58242;51.250;-1.118;2024-03-29T00:51:53;3.53;;;3.28;;
70667;SDS011;58242;51.250;-1.118;2024-03-29T00:54:18;3.72;;;3.53;;
70667;SDS011;58242;51.250;-1.118;2024-03-29T00:56:44;3.90;;;3.60;;
70667;SDS011;58242;51.250;-1.118;2024-03-29T00:59:09;3.75;;;3.45;;
70667;SDS011;58242;51.250;-1.118;2024-03-29T01:01:35;4.13;;;3.70;;
70667;SDS011;58242;51.250;-1.118;2024-03-29T01:04:00;5.32;;;3.70;;
70667;SDS011;58242;51.250;-1.118;2024-03-29T01:06:25;3.20;;;3.10;;
70667;SDS011;58242;51.250;-1.118;2024-03-29T01:08:51;3.63;;;3.42;;
70667;SDS011;58242;51.250;-1.118;2024-03-29T01:11:16;3.35;;;3.25;;
70667;SDS011;58242;51.250;-1.118;2024-03-29T01:13:41;3.72;;;3.20;;
70667;SDS011;58242;51.250;-1.118;2024-03-29T01:16:07;3.30;;;3.20;;
70667;SDS011;58242;51.250;-1.118;2024-03-29T01:18:32;3.15;;;3.05;;
70667;SDS011;58242;51.250;-1.118;2024-03-29T01:20:58;3.45;;;3.25;;
70667;SDS011;58242;51.250;-1.118;2024-03-29T01:23:23;3.30;;;3.10;;
70667;SDS011;58242;51.250;-1.118;2024-03-29T01:25:49;3.35;;;3.15;;
70667;SDS011;58242;51.250;-1.118;2024-03-29T01:28:14;2.92;;;2.83;;
70667;SDS011;58242;51.250;-1.118;2024-03-29T01:30:40;3.10;;;3.00;;
70667;SDS011;58242;51.250;-1.118;2024-03-29T01:33:05;3.45;;;3.25;;
70667;SDS011;58242;51.250;-1.118;2024-03-29T01:35:30;3.00;;;2.90;;
70667;SDS011;58242;51.250;-1.118;2024-03-29T01:37:55;3.30;;;3.15;;
70667;SDS011;58242;51.250;-1.118;2024-03-29T01:40:21;2.80;;;2.65;;
70667;SDS011;58242;51.250;-1.118;2024-03-29T01:42:46;3.80;;;3.60;;
70667;SDS011;58242;51.250;-1.118;2024-03-29T01:45:11;3.00;;;2.90;;
70667;SDS011;58242;51.250;-1.118;2024-03-29T01:47:37;2.90;;;2.80;;
70667;SDS011;58242;51.250;-1.118;2024-03-29T01:50:03;2.97;;;2.85;;
70667;SDS011;58242;51.250;-1.118;2024-03-29T01:52:29;2.88;;;2.78;;
70667;SDS011;58242;51.250;-1.118;2024-03-29T01:54:54;2.97;;;2.85;;
70667;SDS011;58242;51.250;-1.118;2024-03-29T01:57:20;2.70;;;2.60;;
70667;SDS011;58242;51.250;-1.118;2024-03-29T01:59:45;3.17;;;2.97;;
70667;SDS011;58242;51.250;-1.118;2024-03-29T02:02:12;3.35;;;3.25;;
70667;SDS011;58242;51.250;-1.118;2024-03-29T02:04:38;3.00;;;2.88;;
70667;SDS011;58242;51.250;-1.118;2024-03-29T02:07:03;3.38;;;3.28;;
70667;SDS011;58242;51.250;-1.118;2024-03-29T02:09:29;6.38;;;3.20;;
70667;SDS011;58242;51.250;-1.118;2024-03-29T02:11:54;4.13;;;3.00;;
70667;SDS011;58242;51.250;-1.118;2024-03-29T02:14:19;3.13;;;2.90;;
70667;SDS011;58242;51.250;-1.118;2024-03-29T02:16:45;2.92;;;2.83;;
70667;SDS011;58242;51.250;-1.118;2024-03-29T02:19:10;3.72;;;3.00;;
70667;SDS011;58242;51.250;-1.118;2024-03-29T02:21:36;3.40;;;2.67;;
70667;SDS011;58242;51.250;-1.118;2024-03-29T02:24:06;2.58;;;2.40;;
70667;SDS011;58242;51.250;-1.118;2024-03-29T02:26:33;2.60;;;2.50;;
70667;SDS011;58242;51.250;-1.118;2024-03-29T02:29:01;4.68;;;2.53;;
70667;SDS011;58242;51.250;-1.118;2024-03-29T02:31:27;3.45;;;2.95;;
70667;SDS011;58242;51.250;-1.118;2024-03-29T02:33:53;5.85;;;2.90;;
70667;SDS011;58242;51.250;-1.118;2024-03-29T02:36:19;3.30;;;2.50;;
70667;SDS011;58242;51.250;-1.118;2024-03-29T02:38:44;2.55;;;2.28;;
70667;SDS011;58242;51.250;-1.118;2024-03-29T02:41:10;2.20;;;2.10;;
70667;SDS011;58242;51.250;-1.118;2024-03-29T02:43:35;2.90;;;2.70;;
70667;SDS011;58242;51.250;-1.118;2024-03-29T02:46:00;2.67;;;2.58;;
70667;SDS011;58242;51.250;-1.118;2024-03-29T02:48:25;3.40;;;3.10;;
70667;SDS011;58242;51.250;-1.118;2024-03-29T02:50:51;3.40;;;2.70;;
70667;SDS011;58242;51.250;-1.118;2024-03-29T02:53:16;3.25;;;2.42;;
70667;SDS011;58242;51.250;-1.118;2024-03-29T02:55:41;4.57;;;2.75;;
70667;SDS011;58242;51.250;-1.118;2024-03-29T02:58:07;2.60;;;2.50;;
70667;SDS011;58242;51.250;-1.118;2024-03-29T03:00:33;4.00;;;2.90;;
70667;SDS011;58242;51.250;-1.118;2024-03-29T03:02:58;3.40;;;2.95;;
70667;SDS011;58242;51.250;-1.118;2024-03-29T03:05:24;2.78;;;2.58;;
70667;SDS011;58242;51.250;-1.118;2024-03-29T03:07:49;2.90;;;2.70;;
70667;SDS011;58242;51.250;-1.118;2024-03-29T03:10:33;2.80;;;2.60;;
70667;SDS011;58242;51.250;-1.118;2024-03-29T03:13:17;2.72;;;2.53;;
70667;SDS011;58242;51.250;-1.118;2024-03-29T03:15:42;2.63;;;2.42;;
70667;SDS011;58242;51.250;-1.118;2024-03-29T03:18:07;2.80;;;2.60;;
70667;SDS011;58242;51.250;-1.118;2024-03-29T03:20:32;2.33;;;2.22;;
70667;SDS011;58242;51.250;-1.118;2024-03-29T03:22:58;2.42;;;2.22;;
70667;SDS011;58242;51.250;-1.118;2024-03-29T03:25:26;2.60;;;2.50;;
70667;SDS011;58242;51.250;-1.118;2024-03-29T03:30:18;2.55;;;2.30;;
70667;SDS011;58242;51.250;-1.118;2024-03-29T03:32:43;2.50;;;2.30;;
70667;SDS011;58242;51.250;-1.118;2024-03-29T03:35:09;2.30;;;2.10;;
70667;SDS011;58242;51.250;-1.118;2024-03-29T03:37:34;4.15;;;2.72;;
70667;SDS011;58242;51.250;-1.118;2024-03-29T03:40:00;2.72;;;2.47;;
70667;SDS011;58242;51.250;-1.118;2024-03-29T03:42:25;2.50;;;2.40;;
70667;SDS011;58242;51.250;-1.118;2024-03-29T03:44:50;2.60;;;2.40;;
70667;SDS011;58242;51.250;-1.118;2024-03-29T03:47:15;2.05;;;1.88;;
70667;SDS011;58242;51.250;-1.118;2024-03-29T03:49:41;3.10;;;2.00;;
70667;SDS011;58242;51.250;-1.118;2024-03-29T03:52:06;3.50;;;2.85;;
70667;SDS011;58242;51.250;-1.118;2024-03-29T03:54:32;2.50;;;2.15;;
70667;SDS011;58242;51.250;-1.118;2024-03-29T03:56:57;1.92;;;1.83;;
70667;SDS011;58242;51.250;-1.118;2024-03-29T03:59:23;4.68;;;2.50;;
70667;SDS011;58242;51.250;-1.118;2024-03-29T04:01:48;2.25;;;2.15;;
70667;SDS011;58242;51.250;-1.118;2024-03-29T04:04:16;4.57;;;2.53;;
70667;SDS011;58242;51.250;-1.118;2024-03-29T04:06:42;4.13;;;2.55;;
70667;SDS011;58242;51.250;-1.118;2024-03-29T04:09:07;2.95;;;2.80;;
70667;SDS011;58242;51.250;-1.118;2024-03-29T04:11:33;2.40;;;2.30;;
70667;SDS011;58242;51.250;-1.118;2024-03-29T04:13:58;4.78;;;2.92;;
70667;SDS011;58242;51.250;-1.118;2024-03-29T04:16:24;6.68;;;2.70;;
70667;SDS011;58242;51.250;-1.118;2024-03-29T04:18:49;4.00;;;2.90;;
70667;SDS011;58242;51.250;-1.118;2024-03-29T04:21:14;5.63;;;3.10;;
70667;SDS011;58242;51.250;-1.118;2024-03-29T04:23:40;5.75;;;3.15;;
70667;SDS011;58242;51.250;-1.118;2024-03-29T04:26:05;3.85;;;3.03;;
70667;SDS011;58242;51.250;-1.118;2024-03-29T04:28:30;7.03;;;3.42;;
70667;SDS011;58242;51.250;-1.118;2024-03-29T04:30:56;6.88;;;3.28;;
70667;SDS011;58242;51.250;-1.118;2024-03-29T04:33:23;3.92;;;2.83;;
70667;SDS011;58242;51.250;-1.118;2024-03-29T04:35:56;3.40;;;2.80;;
70667;SDS011;58242;51.250;-1.118;2024-03-29T04:38:25;3.40;;;3.03;;
70667;SDS011;58242;51.250;-1.118;2024-03-29T04:40:52;2.70;;;2.50;;
70667;SDS011;58242;51.250;-1.118;2024-03-29T04:43:19;2.78;;;2.55;;
70667;SDS011;58242;51.250;-1.118;2024-03-29T04:45:45;5.28;;;3.00;;
70667;SDS011;58242;51.250;-1.118;2024-03-29T04:48:11;4.97;;;3.67;;
70667;SDS011;58242;51.250;-1.118;2024-03-29T04:50:37;4.65;;;3.15;;
70667;SDS011;58242;51.250;-1.118;2024-03-29T04:53:02;3.35;;;3.05;;
70667;SDS011;58242;51.250;-1.118;2024-03-29T04:55:28;3.25;;;3.03;;
70667;SDS011;58242;51.250;-1.118;2024-03-29T04:57:53;3.22;;;2.90;;
70667;SDS011;58242;51.250;-1.118;2024-03-29T05:00:19;6.43;;;2.90;;
70667;SDS011;58242;51.250;-1.118;2024-03-29T05:02:44;9.40;;;4.22;;
70667;SDS011;58242;51.250;-1.118;2024-03-29T05:05:09;3.40;;;3.10;;
70667;SDS011;58242;51.250;-1.118;2024-03-29T05:07:35;6.07;;;3.72;;
70667;SDS011;58242;51.250;-1.118;2024-03-29T05:10:00;3.33;;;2.90;;
70667;SDS011;58242;51.250;-1.118;2024-03-29T05:12:25;5.47;;;3.00;;
70667;SDS011;58242;51.250;-1.118;2024-03-29T05:14:51;8.60;;;3.47;;
70667;SDS011;58242;51.250;-1.118;2024-03-29T05:17:16;4.18;;;3.00;;
70667;SDS011;58242;51.250;-1.118;2024-03-29T05:19:42;5.93;;;3.70;;
70667;SDS011;58242;51.250;-1.118;2024-03-29T05:22:08;4.38;;;3.00;;
70667;SDS011;58242;51.250;-1.118;2024-03-29T05:24:33;7.40;;;3.50;;
70667;SDS011;58242;51.250;-1.118;2024-03-29T05:26:58;3.20;;;2.90;;
70667;SDS011;58242;51.250;-1.118;2024-03-29T05:29:24;3.25;;;3.05;;
70667;SDS011;58242;51.250;-1.118;2024-03-29T05:31:49;6.35;;;3.20;;
70667;SDS011;58242;51.250;-1.118;2024-03-29T05:34:14;4.40;;;3.40;;
70667;SDS011;58242;51.250;-1.118;2024-03-29T05:36:40;5.05;;;2.50;;
70667;SDS011;58242;51.250;-1.118;2024-03-29T05:39:05;7.38;;;3.50;;
70667;SDS011;58242;51.250;-1.118;2024-03-29T05:41:31;5.45;;;3.10;;
70667;SDS011;58242;51.250;-1.118;2024-03-29T05:43:57;3.28;;;2.95;;
70667;SDS011;58242;51.250;-1.118;2024-03-29T05:46:22;3.13;;;2.92;;
70667;SDS011;58242;51.250;-1.118;2024-03-29T05:48:48;3.28;;;2.55;;
70667;SDS011;58242;51.250;-1.118;2024-03-29T05:51:13;7.93;;;3.50;;
70667;SDS011;58242;51.250;-1.118;2024-03-29T05:53:39;3.30;;;2.95;;
70667;SDS011;58242;51.250;-1.118;2024-03-29T05:56:05;3.80;;;3.40;;
70667;SDS011;58242;51.250;-1.118;2024-03-29T05:58:31;6.45;;;3.38;;
70667;SDS011;58242;51.250;-1.118;2024-03-29T06:00:58;2.70;;;2.50;;
70667;SDS011;58242;51.250;-1.118;2024-03-29T06:03:23;3.33;;;2.80;;
70667;SDS011;58242;51.250;-1.118;2024-03-29T06:05:48;2.55;;;2.28;;
70667;SDS011;58242;51.250;-1.118;2024-03-29T06:08:14;3.90;;;2.80;;
70667;SDS011;58242;51.250;-1.118;2024-03-29T06:10:39;4.20;;;2.88;;
70667;SDS011;58242;51.250;-1.118;2024-03-29T06:13:04;3.25;;;2.75;;
70667;SDS011;58242;51.250;-1.118;2024-03-29T06:15:35;3.10;;;2.50;;
70667;SDS011;58242;51.250;-1.118;2024-03-29T06:18:18;4.78;;;2.38;;
70667;SDS011;58242;51.250;-1.118;2024-03-29T06:20:44;2.70;;;2.50;;
70667;SDS011;58242;51.250;-1.118;2024-03-29T06:23:10;5.93;;;2.80;;
70667;SDS011;58242;51.250;-1.118;2024-03-29T06:25:35;3.25;;;2.70;;
70667;SDS011;58242;51.250;-1.118;2024-03-29T06:28:01;4.57;;;2.50;;
70667;SDS011;58242;51.250;-1.118;2024-03-29T06:30:26;6.82;;;3.35;;
70667;SDS011;58242;51.250;-1.118;2024-03-29T06:32:52;5.47;;;2.63;;
70667;SDS011;58242;51.250;-1.118;2024-03-29T06:35:17;7.10;;;3.22;;
70667;SDS011;58242;51.250;-1.118;2024-03-29T06:37:45;3.78;;;2.42;;
70667;SDS011;58242;51.250;-1.118;2024-03-29T06:40:10;2.20;;;2.10;;
70667;SDS011;58242;51.250;-1.118;2024-03-29T06:42:36;2.80;;;2.60;;
70667;SDS011;58242;51.250;-1.118;2024-03-29T06:45:01;2.70;;;2.50;;
70667;SDS011;58242;51.250;-1.118;2024-03-29T06:47:27;3.03;;;2.58;;
70667;SDS011;58242;51.250;-1.118;2024-03-29T06:49:53;4.78;;;2.63;;
70667;SDS011;58242;51.250;-1.118;2024-03-29T06:52:18;4.03;;;2.47;;
70667;SDS011;58242;51.250;-1.118;2024-03-29T06:54:43;4.25;;;2.55;;
70667;SDS011;58242;51.250;-1.118;2024-03-29T06:57:09;2.97;;;2.67;;
70667;SDS011;58242;51.250;-1.118;2024-03-29T06:59:36;5.10;;;2.42;;
70667;SDS011;58242;51.250;-1.118;2024-03-29T07:02:02;4.25;;;2.65;;
70667;SDS011;58242;51.250;-1.118;2024-03-29T07:04:28;4.22;;;2.65;;
70667;SDS011;58242;51.250;-1.118;2024-03-29T07:06:54;2.85;;;2.45;;
70667;SDS011;58242;51.250;-1.118;2024-03-29T07:09:19;3.55;;;2.70;;
70667;SDS011;58242;51.250;-1.118;2024-03-29T07:11:46;2.63;;;2.38;;
70667;SDS011;58242;51.250;-1.118;2024-03-29T07:14:16;2.35;;;2.15;;
70667;SDS011;58242;51.250;-1.118;2024-03-29T07:16:42;2.60;;;2.22;;
70667;SDS011;58242;51.250;-1.118;2024-03-29T07:19:08;2.40;;;2.20;;
70667;SDS011;58242;51.250;-1.118;2024-03-29T07:21:34;5.35;;;2.85;;
70667;SDS011;58242;51.250;-1.118;2024-03-29T07:23:59;6.90;;;3.00;;
70667;SDS011;58242;51.250;-1.118;2024-03-29T07:26:24;5.00;;;2.83;;
70667;SDS011;58242;51.250;-1.118;2024-03-29T07:28:50;2.88;;;2.55;;
70667;SDS011;58242;51.250;-1.118;2024-03-29T07:31:15;4.57;;;2.55;;
70667;SDS011;58242;51.250;-1.118;2024-03-29T07:33:40;2.70;;;2.50;;
70667;SDS011;58242;51.250;-1.118;2024-03-29T07:36:06;4.78;;;2.60;;
70667;SDS011;58242;51.250;-1.118;2024-03-29T07:38:33;2.80;;;2.28;;
70667;SDS011;58242;51.250;-1.118;2024-03-29T07:40:58;3.78;;;2.65;;
70667;SDS011;58242;51.250;-1.118;2024-03-29T07:43:23;3.20;;;2.85;;
70667;SDS011;58242;51.250;-1.118;2024-03-29T07:45:49;2.60;;;2.40;;
70667;SDS011;58242;51.250;-1.118;2024-03-29T07:48:15;2.38;;;2.20;;
70667;SDS011;58242;51.250;-1.118;2024-03-29T07:50:42;2.03;;;1.92;;
70667;SDS011;58242;51.250;-1.118;2024-03-29T07:53:08;3.78;;;2.58;;
70667;SDS011;58242;51.250;-1.118;2024-03-29T07:55:35;2.72;;;1.98;;
70667;SDS011;58242;51.250;-1.118;2024-03-29T07:58:00;3.03;;;2.42;;
70667;SDS011;58242;51.250;-1.118;2024-03-29T08:00:26;5.50;;;3.10;;
70667;SDS011;58242;51.250;-1.118;2024-03-29T08:02:51;3.15;;;2.85;;
70667;SDS011;58242;51.250;-1.118;2024-03-29T08:05:18;2.90;;;2.70;;
70667;SDS011;58242;51.250;-1.118;2024-03-29T08:07:45;5.20;;;2.53;;
70667;SDS011;58242;51.250;-1.118;2024-03-29T08:10:10;4.50;;;2.80;;
70667;SDS011;58242;51.250;-1.118;2024-03-29T08:12:36;4.80;;;2.47;;
70667;SDS011;58242;51.250;-1.118;2024-03-29T08:15:02;3.00;;;2.70;;
70667;SDS011;58242;51.250;-1.118;2024-03-29T08:17:28;2.85;;;2.60;;
70667;SDS011;58242;51.250;-1.118;2024-03-29T08:19:53;6.00;;;2.75;;
70667;SDS011;58242;51.250;-1.118;2024-03-29T08:22:19;3.40;;;3.10;;
70667;SDS011;58242;51.250;-1.118;2024-03-29T08:24:45;6.32;;;3.38;;
70667;SDS011;58242;51.250;-1.118;2024-03-29T08:27:11;5.68;;;3.40;;
70667;SDS011;58242;51.250;-1.118;2024-03-29T08:29:36;5.72;;;3.10;;
70667;SDS011;58242;51.250;-1.118;2024-03-29T08:32:02;3.47;;;3.10;;
70667;SDS011;58242;51.250;-1.118;2024-03-29T08:34:28;3.08;;;2.33;;
70667;SDS011;58242;51.250;-1.118;2024-03-29T08:36:59;3.10;;;2.60;;
70667;SDS011;58242;51.250;-1.118;2024-03-29T08:39:25;3.10;;;2.80;;
70667;SDS011;58242;51.250;-1.118;2024-03-29T08:41:50;3.38;;;2.80;;
70667;SDS011;58242;51.250;-1.118;2024-03-29T08:44:15;3.13;;;2.90;;
70667;SDS011;58242;51.250;-1.118;2024-03-29T08:46:41;5.10;;;2.92;;
70667;SDS011;58242;51.250;-1.118;2024-03-29T08:49:06;3.75;;;2.60;;
70667;SDS011;58242;51.250;-1.118;2024-03-29T08:51:31;5.07;;;2.80;;
70667;SDS011;58242;51.250;-1.118;2024-03-29T08:53:57;6.90;;;3.72;;
70667;SDS011;58242;51.250;-1.118;2024-03-29T08:56:23;5.25;;;3.70;;
70667;SDS011;58242;51.250;-1.118;2024-03-29T08:58:48;5.07;;;3.63;;
70667;SDS011;58242;51.250;-1.118;2024-03-29T09:01:14;3.13;;;2.83;;
70667;SDS011;58242;51.250;-1.118;2024-03-29T09:03:40;6.18;;;3.15;;
70667;SDS011;58242;51.250;-1.118;2024-03-29T09:06:05;3.67;;;3.20;;
70667;SDS011;58242;51.250;-1.118;2024-03-29T09:08:31;6.28;;;3.05;;
70667;SDS011;58242;51.250;-1.118;2024-03-29T09:10:56;3.60;;;2.83;;
70667;SDS011;58242;51.250;-1.118;2024-03-29T09:13:21;7.25;;;2.65;;
70667;SDS011;58242;51.250;-1.118;2024-03-29T09:15:47;3.17;;;2.85;;
70667;SDS011;58242;51.250;-1.118;2024-03-29T09:18:14;4.00;;;3.15;;
70667;SDS011;58242;51.250;-1.118;2024-03-29T09:20:45;4.20;;;2.85;;
70667;SDS011;58242;51.250;-1.118;2024-03-29T09:23:11;3.72;;;2.75;;
70667;SDS011;58242;51.250;-1.118;2024-03-29T09:25:40;8.63;;;3.50;;
70667;SDS011;58242;51.250;-1.118;2024-03-29T09:28:06;6.00;;;2.90;;
70667;SDS011;58242;51.250;-1.118;2024-03-29T09:30:31;4.18;;;2.80;;
70667;SDS011;58242;51.250;-1.118;2024-03-29T09:32:57;3.90;;;2.80;;
70667;SDS011;58242;51.250;-1.118;2024-03-29T09:35:22;4.93;;;3.30;;
70667;SDS011;58242;51.250;-1.118;2024-03-29T09:37:48;7.22;;;3.63;;
70667;SDS011;58242;51.250;-1.118;2024-03-29T09:40:13;6.10;;;3.28;;
70667;SDS011;58242;51.250;-1.118;2024-03-29T09:42:39;3.80;;;2.67;;
70667;SDS011;58242;51.250;-1.118;2024-03-29T09:45:04;5.60;;;3.58;;
70667;SDS011;58242;51.250;-1.118;2024-03-29T09:47:31;4.80;;;3.75;;
70667;SDS011;58242;51.250;-1.118;2024-03-29T09:49:58;4.72;;;3.60;;
70667;SDS011;58242;51.250;-1.118;2024-03-29T09:52:27;6.25;;;4.43;;
70667;SDS011;58242;51.250;-1.118;2024-03-29T09:54:53;8.07;;;4.10;;
70667;SDS011;58242;51.250;-1.118;2024-03-29T09:57:20;7.38;;;3.08;;
70667;SDS011;58242;51.250;-1.118;2024-03-29T09:59:46;5.22;;;3.88;;
70667;SDS011;58242;51.250;-1.118;2024-03-29T10:02:14;3.85;;;2.75;;
70667;SDS011;58242;51.250;-1.118;2024-03-29T10:04:44;3.25;;;2.95;;
70667;SDS011;58242;51.250;-1.118;2024-03-29T10:07:11;4.07;;;2.70;;
70667;SDS011;58242;51.250;-1.118;2024-03-29T10:09:37;3.58;;;2.80;;
70667;SDS011;58242;51.250;-1.118;2024-03-29T10:12:04;5.38;;;3.00;;
70667;SDS011;58242;51.250;-1.118;2024-03-29T10:14:30;4.38;;;3.35;;
70667;SDS011;58242;51.250;-1.118;2024-03-29T10:16:57;4.18;;;2.85;;
70667;SDS011;58242;51.250;-1.118;2024-03-29T10:19:23;6.78;;;3.78;;
70667;SDS011;58242;51.250;-1.118;2024-03-29T10:21:48;5.57;;;3.22;;
70667;SDS011;58242;51.250;-1.118;2024-03-29T10:24:14;3.47;;;3.10;;
70667;SDS011;58242;51.250;-1.118;2024-03-29T10:26:42;3.17;;;2.70;;
70667;SDS011;58242;51.250;-1.118;2024-03-29T10:29:08;4.80;;;3.08;;
70667;SDS011;58242;51.250;-1.118;2024-03-29T10:31:36;4.78;;;3.08;;
70667;SDS011;58242;51.250;-1.118;2024-03-29T10:34:05;3.67;;;2.80;;
70667;SDS011;58242;51.250;-1.118;2024-03-29T10:36:31;6.18;;;2.88;;
70667;SDS011;58242;51.250;-1.118;2024-03-29T10:39:02;8.70;;;3.58;;
70667;SDS011;58242;51.250;-1.118;2024-03-29T10:41:36;3.50;;;2.95;;
70667;SDS011;58242;51.250;-1.118;2024-03-29T10:44:04;3.45;;;2.88;;
70667;SDS011;58242;51.250;-1.118;2024-03-29T10:46:33;3.53;;;3.20;;
70667;SDS011;58242;51.250;-1.118;2024-03-29T10:49:01;7.53;;;3.58;;
70667;SDS011;58242;51.250;-1.118;2024-03-29T10:51:28;9.45;;;4.03;;
70667;SDS011;58242;51.250;-1.118;2024-03-29T10:53:55;6.07;;;4.00;;
70667;SDS011;58242;51.250;-1.118;2024-03-29T10:56:22;10.93;;;4.28;;
70667;SDS011;58242;51.250;-1.118;2024-03-29T10:58:49;5.15;;;3.33;;
70667;SDS011;58242;51.250;-1.118;2024-03-29T11:01:17;6.07;;;3.28;;
70667;SDS011;58242;51.250;-1.118;2024-03-29T11:03:45;6.78;;;3.45;;
70667;SDS011;58242;51.250;-1.118;2024-03-29T11:06:19;5.68;;;3.20;;
70667;SDS011;58242;51.250;-1.118;2024-03-29T11:08:48;8.73;;;3.50;;
70667;SDS011;58242;51.250;-1.118;2024-03-29T11:11:19;5.65;;;3.35;;
70667;SDS011;58242;51.250;-1.118;2024-03-29T11:13:53;7.07;;;3.47;;
70667;SDS011;58242;51.250;-1.118;2024-03-29T11:16:23;5.20;;;3.40;;
70667;SDS011;58242;51.250;-1.118;2024-03-29T11:18:49;5.25;;;3.55;;
70667;SDS011;58242;51.250;-1.118;2024-03-29T11:21:16;8.98;;;3.72;;
70667;SDS011;58242;51.250;-1.118;2024-03-29T11:23:49;4.90;;;3.50;;
70667;SDS011;58242;51.250;-1.118;2024-03-29T11:26:15;9.70;;;4.03;;
70667;SDS011;58242;51.250;-1.118;2024-03-29T11:28:47;6.57;;;3.55;;
70667;SDS011;58242;51.250;-1.118;2024-03-29T11:31:13;6.22;;;3.17;;
70667;SDS011;58242;51.250;-1.118;2024-03-29T11:36:12;6.68;;;3.88;;
70667;SDS011;58242;51.250;-1.118;2024-03-29T11:38:41;4.75;;;3.40;;
70667;SDS011;58242;51.250;-1.118;2024-03-29T11:41:11;6.13;;;3.20;;
70667;SDS011;58242;51.250;-1.118;2024-03-29T11:43:38;6.43;;;3.50;;
70667;SDS011;58242;51.250;-1.118;2024-03-29T11:46:05;2.83;;;2.63;;
70667;SDS011;58242;51.250;-1.118;2024-03-29T11:48:32;4.65;;;2.92;;
70667;SDS011;58242;51.250;-1.118;2024-03-29T11:50:58;6.28;;;3.15;;
70667;SDS011;58242;51.250;-1.118;2024-03-29T11:53:25;6.30;;;3.42;;
70667;SDS011;58242;51.250;-1.118;2024-03-29T11:55:52;3.85;;;3.20;;
70667;SDS011;58242;51.250;-1.118;2024-03-29T11:58:21;3.67;;;2.50;;
70667;SDS011;58242;51.250;-1.118;2024-03-29T12:00:48;5.38;;;3.38;;
70667;SDS011;58242;51.250;-1.118;2024-03-29T12:03:16;4.07;;;2.75;;
70667;SDS011;58242;51.250;-1.118;2024-03-29T12:05:45;4.15;;;3.20;;
70667;SDS011;58242;51.250;-1.118;2024-03-29T12:08:12;3.28;;;2.97;;
70667;SDS011;58242;51.250;-1.118;2024-03-29T12:10:38;4.40;;;2.67;;
70667;SDS011;58242;51.250;-1.118;2024-03-29T12:13:04;2.58;;;2.38;;
70667;SDS011;58242;51.250;-1.118;2024-03-29T12:15:30;2.38;;;2.17;;
70667;SDS011;58242;51.250;-1.118;2024-03-29T12:17:57;2.72;;;2.33;;
70667;SDS011;58242;51.250;-1.118;2024-03-29T12:20:23;2.40;;;2.20;;
70667;SDS011;58242;51.250;-1.118;2024-03-29T12:22:48;2.35;;;2.15;;
70667;SDS011;58242;51.250;-1.118;2024-03-29T12:25:14;2.15;;;1.98;;
70667;SDS011;58242;51.250;-1.118;2024-03-29T12:27:42;2.65;;;2.45;;
70667;SDS011;58242;51.250;-1.118;2024-03-29T12:30:08;3.97;;;2.90;;
70667;SDS011;58242;51.250;-1.118;2024-03-29T12:32:34;3.60;;;2.50;;
70667;SDS011;58242;51.250;-1.118;2024-03-29T12:35:07;4.00;;;2.70;;
70667;SDS011;58242;51.250;-1.118;2024-03-29T12:37:34;3.03;;;2.70;;
70667;SDS011;58242;51.250;-1.118;2024-03-29T12:39:59;2.75;;;2.30;;
70667;SDS011;58242;51.250;-1.118;2024-03-29T12:42:25;3.17;;;2.40;;
70667;SDS011;58242;51.250;-1.118;2024-03-29T12:44:50;5.95;;;3.30;;
70667;SDS011;58242;51.250;-1.118;2024-03-29T12:47:17;4.32;;;2.58;;
70667;SDS011;58242;51.250;-1.118;2024-03-29T12:49:42;4.70;;;3.35;;
70667;SDS011;58242;51.250;-1.118;2024-03-29T12:52:07;3.08;;;2.67;;
70667;SDS011;58242;51.250;-1.118;2024-03-29T12:54:32;4.97;;;3.22;;
70667;SDS011;58242;51.250;-1.118;2024-03-29T12:56:58;4.75;;;3.60;;
70667;SDS011;58242;51.250;-1.118;2024-03-29T12:59:27;5.60;;;3.80;;
70667;SDS011;58242;51.250;-1.118;2024-03-29T13:01:53;5.97;;;3.50;;
70667;SDS011;58242;51.250;-1.118;2024-03-29T13:04:19;4.55;;;3.20;;
70667;SDS011;58242;51.250;-1.118;2024-03-29T13:06:44;4.32;;;3.88;;
70667;SDS011;58242;51.250;-1.118;2024-03-29T13:09:09;5.57;;;3.97;;
70667;SDS011;58242;51.250;-1.118;2024-03-29T13:11:35;5.00;;;3.50;;
70667;SDS011;58242;51.250;-1.118;2024-03-29T13:14:00;4.38;;;3.42;;
70667;SDS011;58242;51.250;-1.118;2024-03-29T13:16:25;6.75;;;3.55;;
70667;SDS011;58242;51.250;-1.118;2024-03-29T13:18:51;6.95;;;4.38;;
70667;SDS011;58242;51.250;-1.118;2024-03-29T13:21:16;6.15;;;3.88;;
70667;SDS011;58242;51.250;-1.118;2024-03-29T13:23:41;4.70;;;4.18;;
70667;SDS011;58242;51.250;-1.118;2024-03-29T13:26:07;5.13;;;3.45;;
70667;SDS011;58242;51.250;-1.118;2024-03-29T13:28:32;8.65;;;4.07;;
70667;SDS011;58242;51.250;-1.118;2024-03-29T13:30:57;4.90;;;4.13;;
70667;SDS011;58242;51.250;-1.118;2024-03-29T13:33:23;4.13;;;3.58;;
70667;SDS011;58242;51.250;-1.118;2024-03-29T13:35:50;7.20;;;4.07;;
70667;SDS011;58242;51.250;-1.118;2024-03-29T13:38:17;6.13;;;3.88;;
70667;SDS011;58242;51.250;-1.118;2024-03-29T13:40:46;4.00;;;3.53;;
70667;SDS011;58242;51.250;-1.118;2024-03-29T13:43:12;3.60;;;3.28;;
70667;SDS011;58242;51.250;-1.118;2024-03-29T13:45:37;8.43;;;3.70;;
70667;SDS011;58242;51.250;-1.118;2024-03-29T13:48:02;5.72;;;3.10;;
70667;SDS011;58242;51.250;-1.118;2024-03-29T13:50:28;4.97;;;3.63;;
70667;SDS011;58242;51.250;-1.118;2024-03-29T13:52:53;6.95;;;3.65;;
70667;SDS011;58242;51.250;-1.118;2024-03-29T13:55:20;4.80;;;4.10;;
70667;SDS011;58242;51.250;-1.118;2024-03-29T13:57:45;4.78;;;3.28;;
70667;SDS011;58242;51.250;-1.118;2024-03-29T14:00:10;6.22;;;3.50;;
70667;SDS011;58242;51.250;-1.118;2024-03-29T14:02:39;4.07;;;3.17;;
70667;SDS011;58242;51.250;-1.118;2024-03-29T14:05:04;5.63;;;4.15;;
70667;SDS011;58242;51.250;-1.118;2024-03-29T14:07:30;4.25;;;3.60;;
70667;SDS011;58242;51.250;-1.118;2024-03-29T14:09:55;5.75;;;3.83;;
70667;SDS011;58242;51.250;-1.118;2024-03-29T14:12:21;6.53;;;4.13;;
70667;SDS011;58242;51.250;-1.118;2024-03-29T14:14:47;4.35;;;3.13;;
70667;SDS011;58242;51.250;-1.118;2024-03-29T14:17:15;4.60;;;3.30;;
70667;SDS011;58242;51.250;-1.118;2024-03-29T14:19:40;5.40;;;3.20;;
70667;SDS011;58242;51.250;-1.118;2024-03-29T14:22:06;3.90;;;3.50;;
70667;SDS011;58242;51.250;-1.118;2024-03-29T14:24:32;7.28;;;4.13;;
70667;SDS011;58242;51.250;-1.118;2024-03-29T14:27:01;5.55;;;3.63;;
70667;SDS011;58242;51.250;-1.118;2024-03-29T14:29:28;5.20;;;4.25;;
70667;SDS011;58242;51.250;-1.118;2024-03-29T14:31:53;3.63;;;3.30;;